Misión y Visión

La misión es proporcionar información fiable a la navegación aérea, contribuyendo a la seguridad, regularidad y eficiencia de la Navegación Aérea Internacional

La visión es contribuir sustancialmente al desarrollo de conocimientos y a la utilización de la meteorología aeronáutica a nivel nacional e internacional, mediante la innovación y la coparticipación con sectores sociales y productivos de la sociedad.

 
  Inicio
  Metar
  Taf
  Wintemp
  SIGMET
  Avisos
  Pronósticos
  Carpeta Meteorologica
  Imágenes Satelitales
  Climatología Aeronáutica
   
  ¿Quienes Somos?
  Contacto
  Eventos
  Publicaciones
  Politica de la Calidad
Taf


DIRECCIONES PARA INFORMES NACIONALES E INTERNACIONALES
(Metar /Speci - TAF)

http://adds.aviationweather.gov/tafs/index.php

http://www.ogimet.com/metars.phtml

PRONÓSTICOS DE AERÓDROMO

Cuando sea necesario, el encabezamiento abreviado puede incluir un cuarto grupo consistente en tres letras para identificar los boletines demorados (RRA), corregidos (CCA) o enmendados (AAA). Los boletines adicionales demorados, corregidos o enmendados deben identificarse con las letras RRB, RRC, etc.; CCB, CCC,etc.;AAB, AAC,etc.

 

DÍA 18/04/2014

 

TAF

MPTO

TAF MPTO 181700Z 1818/1918 02008KT 9999 FEW018 BKN090
 BECMG 1901/1905 00000KT FEW020 SCT090 

TAF

MPPA(MPHO)

TAF MPPA 181700Z 1818/1918 01010KT 9999 FEW018 BKN090 BECMG 1900/1904 35006KT FEW020

TAF

MPMG

 TAF MPMG 181700Z 1818/1906 33012KT 9999 FEW018 BKN090
 BECMG 1901/1905 32005KT FEW018 SCT090 

TAF

MPDA

TAF MPDA 181700Z 1818/1906 20010KT 9999 FEW020 SCT100 PROB30 TEMPO 1821/1901 8000 RA SCT018 BKN090 BECMG 1901/1905 00000KT 9999 FEW020

 

 

 
 











  Noticias AAC
  Directorio
  Contáctenos
  Historia
  Quejas y Sugerencias
  Etica y Transparencia

  Gestión SSP/SMS
  Seguridad Aérea
  Navegación Aérea
  Transporte Aéreo

  Tramites
  Áeronaves de Alquiler

  Meteorología
  I.S.F.P.A
  Notam
  Peligro Aviario
  AVSEC
  UPIA
  Permisos
 




DECLARACIÓN DE PRIVACIDAD